createdAt,value
2018-12-05T00:00:56.798Z,531.33
2018-12-05T00:03:26.157Z,545.57
2018-12-05T00:05:55.701Z,528.80
2018-12-05T00:08:26.280Z,539.63
2018-12-05T00:10:55.640Z,538.07
2018-12-05T00:13:25.236Z,542.70
2018-12-05T00:15:54.901Z,529.30
2018-12-05T00:18:24.744Z,531.70
2018-12-05T00:20:54.033Z,527.67
2018-12-05T00:23:23.494Z,562.63
2018-12-05T00:25:53.058Z,551.20
2018-12-05T00:28:22.547Z,559.80
2018-12-05T00:30:52.097Z,529.10
2018-12-05T00:33:21.896Z,528.47
2018-12-05T00:35:51.589Z,528.40
2018-12-05T00:38:21.083Z,548.20
2018-12-05T00:40:50.744Z,537.57
2018-12-05T00:43:20.312Z,542.57
2018-12-05T00:45:49.985Z,541.37
2018-12-05T00:48:19.485Z,552.37
2018-12-05T00:50:49.108Z,548.10
2018-12-05T00:53:18.852Z,539.43
2018-12-05T00:55:48.213Z,569.83
2018-12-05T00:58:17.740Z,560.17
2018-12-05T01:00:47.376Z,559.83
2018-12-05T01:03:16.656Z,560.00
2018-12-05T01:05:46.612Z,539.10
2018-12-05T01:08:16.260Z,553.50
2018-12-05T01:10:45.775Z,593.37
2018-12-05T01:13:15.189Z,616.37
2018-12-05T01:15:44.742Z,596.07
2018-12-05T01:18:13.958Z,564.70
2018-12-05T01:20:43.385Z,403.10
2018-12-05T01:23:12.892Z,261.50
2018-12-05T01:25:42.836Z,241.93
2018-12-05T01:28:12.083Z,155.20
2018-12-05T01:30:41.508Z,164.73
2018-12-05T01:33:10.896Z,47.90
2018-12-05T01:35:40.239Z,68.77
2018-12-05T01:38:09.541Z,89.17
2018-12-05T01:40:39.118Z,29.43
2018-12-05T01:43:08.873Z,25.10
2018-12-05T01:45:38.448Z,27.27
2018-12-05T01:48:08.063Z,27.13
2018-12-05T01:50:37.604Z,21.30
2018-12-05T01:53:07.230Z,26.03
2018-12-05T01:55:36.662Z,23.07
2018-12-05T01:58:06.295Z,21.43
2018-12-05T02:00:35.749Z,21.10
2018-12-05T02:03:04.978Z,23.67
2018-12-05T02:05:40.915Z,21.80
2018-12-05T02:08:10.136Z,23.70
2018-12-05T02:10:39.576Z,24.00
2018-12-05T02:13:09.446Z,25.80
2018-12-05T02:15:39.064Z,22.33
2018-12-05T02:18:08.635Z,26.43
2018-12-05T02:20:38.168Z,28.00
2018-12-05T02:23:07.810Z,29.57
2018-12-05T02:25:37.464Z,28.90
2018-12-05T02:28:06.735Z,28.80
2018-12-05T02:30:36.409Z,26.93
2018-12-05T02:33:06.372Z,25.20
2018-12-05T02:35:35.593Z,23.03
2018-12-05T02:38:04.968Z,26.50
2018-12-05T02:40:34.303Z,25.77
2018-12-05T02:43:03.813Z,26.27
2018-12-05T02:45:33.147Z,27.77
2018-12-05T02:48:02.785Z,27.63
2018-12-05T02:50:32.353Z,25.60
2018-12-05T02:53:01.935Z,27.83
2018-12-05T02:55:31.150Z,26.10
2018-12-05T02:58:00.728Z,26.23
2018-12-05T03:00:30.282Z,25.83
2018-12-05T03:02:59.660Z,22.20
2018-12-05T03:05:29.381Z,23.63
2018-12-05T03:07:58.862Z,24.40
2018-12-05T03:10:28.623Z,27.73
2018-12-05T03:12:59.130Z,30.00
2018-12-05T03:15:28.670Z,30.23
2018-12-05T03:17:58.280Z,27.93
2018-12-05T03:20:27.784Z,26.77
2018-12-05T03:22:57.276Z,30.77
2018-12-05T03:25:26.873Z,33.47
2018-12-05T03:27:56.139Z,29.40
2018-12-05T03:30:25.592Z,29.00
2018-12-05T03:32:55.101Z,27.90
2018-12-05T03:35:29.503Z,23.63
2018-12-05T03:37:58.768Z,25.83
2018-12-05T03:40:28.184Z,27.30
2018-12-05T03:42:57.634Z,24.63
2018-12-05T03:45:27.204Z,26.17
2018-12-05T03:47:56.570Z,30.03
2018-12-05T03:50:25.865Z,27.50
2018-12-05T03:52:55.254Z,23.90
2018-12-05T03:55:24.850Z,26.33
2018-12-05T03:57:54.454Z,25.43
2018-12-05T04:00:23.853Z,27.33
2018-12-05T04:02:53.573Z,30.60
2018-12-05T04:05:23.168Z,25.63
2018-12-05T04:07:52.454Z,24.50
2018-12-05T04:10:21.951Z,26.50
2018-12-05T04:12:51.317Z,25.13
2018-12-05T04:15:20.769Z,25.17
2018-12-05T04:17:50.449Z,27.27
2018-12-05T04:20:20.153Z,22.33
2018-12-05T04:22:49.621Z,21.47
2018-12-05T04:25:19.436Z,24.80
2018-12-05T04:27:48.924Z,26.67
2018-12-05T04:30:18.583Z,23.23
2018-12-05T04:32:50.050Z,27.37
2018-12-05T04:35:19.606Z,25.67
2018-12-05T04:37:49.317Z,24.13
2018-12-05T04:40:18.849Z,25.93
2018-12-05T04:42:48.558Z,25.97
2018-12-05T04:45:18.121Z,29.57
2018-12-05T04:47:47.995Z,26.97
2018-12-05T04:50:17.344Z,29.50
2018-12-05T04:52:46.982Z,27.17
2018-12-05T04:55:16.525Z,29.70
2018-12-05T04:57:46.197Z,26.47
2018-12-05T05:00:15.676Z,26.87
2018-12-05T05:02:45.325Z,28.20
2018-12-05T05:05:14.957Z,25.90
2018-12-05T05:07:44.395Z,30.87
2018-12-05T05:10:16.782Z,27.10
2018-12-05T05:12:46.485Z,27.27
2018-12-05T05:15:16.211Z,33.67
2018-12-05T05:17:46.737Z,32.97
2018-12-05T05:20:16.633Z,29.93
2018-12-05T05:22:46.362Z,31.93
2018-12-05T05:25:16.109Z,34.27
2018-12-05T05:27:46.094Z,30.57
2018-12-05T05:30:15.726Z,33.50
2018-12-05T05:32:48.654Z,34.13
2018-12-05T05:35:18.245Z,36.07
2018-12-05T05:37:47.672Z,35.60
2018-12-05T05:40:17.317Z,27.93
2018-12-05T05:42:46.611Z,34.13
2018-12-05T05:45:16.295Z,31.93
2018-12-05T05:47:46.044Z,29.83
2018-12-05T05:50:15.558Z,35.07
2018-12-05T05:52:44.950Z,28.77
2018-12-05T05:55:14.559Z,29.77
2018-12-05T05:57:44.087Z,33.27
2018-12-05T06:00:13.435Z,33.30
2018-12-05T06:02:43.168Z,29.03
2018-12-05T06:05:12.907Z,28.63
2018-12-05T06:07:42.160Z,28.17
2018-12-05T06:10:11.727Z,28.53
2018-12-05T06:12:41.297Z,28.97
2018-12-05T06:15:10.797Z,27.40
2018-12-05T06:17:40.541Z,27.97
2018-12-05T06:20:10.277Z,26.73
2018-12-05T06:22:39.871Z,23.33
2018-12-05T06:25:09.348Z,20.23
2018-12-05T06:27:38.803Z,25.13
2018-12-05T06:30:08.943Z,28.43
2018-12-05T06:32:38.376Z,22.00
2018-12-05T06:35:07.907Z,21.93
2018-12-05T06:37:37.391Z,20.20
2018-12-05T06:40:07.307Z,16.70
2018-12-05T06:42:36.901Z,16.37
2018-12-05T06:45:06.684Z,24.13
2018-12-05T06:47:36.036Z,16.67
2018-12-05T06:50:05.776Z,14.60
2018-12-05T06:52:35.276Z,17.80
2018-12-05T06:55:05.203Z,16.00
2018-12-05T06:57:34.584Z,16.97
2018-12-05T07:00:04.436Z,25.40
2018-12-05T07:02:33.944Z,15.10
2018-12-05T07:05:03.426Z,13.13
2018-12-05T07:07:32.887Z,17.20
2018-12-05T07:10:02.566Z,15.97
2018-12-05T07:12:31.996Z,12.07
2018-12-05T07:15:01.579Z,14.13
2018-12-05T07:17:30.908Z,13.20
2018-12-05T07:20:00.485Z,9.30
2018-12-05T07:22:29.821Z,13.37
2018-12-05T07:24:59.296Z,11.77
2018-12-05T07:27:29.747Z,20.40
2018-12-05T07:29:59.993Z,11.50
2018-12-05T07:32:29.476Z,14.57
2018-12-05T07:34:58.820Z,7.50
2018-12-05T07:37:28.336Z,7.77
2018-12-05T07:39:57.753Z,14.43
2018-12-05T07:42:27.136Z,9.97
2018-12-05T07:44:56.385Z,10.43
2018-12-05T07:47:25.670Z,8.47
2018-12-05T07:49:55.097Z,9.97
2018-12-05T07:52:24.898Z,9.60
2018-12-05T07:54:54.746Z,7.97
2018-12-05T07:57:24.217Z,9.70
2018-12-05T07:59:53.671Z,5.83
2018-12-05T08:02:23.275Z,8.37
2018-12-05T08:04:52.889Z,6.97
2018-12-05T08:07:22.506Z,9.50
2018-12-05T08:09:52.284Z,8.00
2018-12-05T08:12:22.008Z,30.27
2018-12-05T08:14:51.649Z,7.50
2018-12-05T08:17:21.174Z,9.57
2018-12-05T08:19:50.814Z,6.10
2018-12-05T08:22:20.147Z,11.67
2018-12-05T08:24:49.636Z,13.73
2018-12-05T08:27:19.148Z,8.67
2018-12-05T08:29:48.862Z,10.40
2018-12-05T08:32:18.297Z,6.37
2018-12-05T08:34:47.829Z,6.00
2018-12-05T08:37:17.474Z,8.50
2018-12-05T08:39:47.187Z,7.57
2018-12-05T08:42:16.708Z,9.23
2018-12-05T08:44:46.096Z,11.97
2018-12-05T08:47:15.650Z,6.73
2018-12-05T08:49:45.105Z,7.10
2018-12-05T08:52:14.814Z,9.40
2018-12-05T08:54:44.315Z,12.40
2018-12-05T08:57:13.625Z,8.27
2018-12-05T08:59:43.193Z,7.93
2018-12-05T09:02:12.640Z,8.53
2018-12-05T09:04:42.001Z,10.37
2018-12-05T09:07:11.609Z,8.50
2018-12-05T09:09:41.004Z,8.00
2018-12-05T09:12:10.627Z,7.27
2018-12-05T09:14:40.025Z,11.43
2018-12-05T09:17:09.542Z,9.37
2018-12-05T09:19:39.357Z,8.80
2018-12-05T09:22:09.302Z,6.77
2018-12-05T09:24:38.894Z,8.17
2018-12-05T09:27:08.584Z,7.83
2018-12-05T09:29:38.145Z,6.83
2018-12-05T09:32:07.741Z,6.30
2018-12-05T09:34:37.279Z,7.33
2018-12-05T09:37:06.725Z,7.27
2018-12-05T09:39:36.389Z,5.57
2018-12-05T09:42:05.856Z,5.57
2018-12-05T09:44:35.697Z,5.40
2018-12-05T09:47:05.047Z,6.40
2018-12-05T09:49:34.622Z,4.73
2018-12-05T09:52:04.124Z,7.17
2018-12-05T09:54:33.395Z,11.37
2018-12-05T09:57:02.949Z,6.57
2018-12-05T09:59:32.240Z,7.13
2018-12-05T10:02:01.614Z,6.17
2018-12-05T10:04:31.224Z,4.97
2018-12-05T10:07:00.708Z,4.13
2018-12-05T10:09:30.289Z,5.70
2018-12-05T10:12:00.047Z,8.27
2018-12-05T10:14:29.516Z,6.13
2018-12-05T10:16:59.096Z,7.80
2018-12-05T10:19:28.952Z,7.03
2018-12-05T10:21:58.494Z,6.00
2018-12-05T10:24:30.467Z,10.40
2018-12-05T10:27:00.352Z,5.33
2018-12-05T10:29:29.902Z,8.67
2018-12-05T10:31:59.602Z,8.13
2018-12-05T10:34:30.166Z,7.17
2018-12-05T10:36:59.464Z,8.20
2018-12-05T10:39:28.863Z,7.20
2018-12-05T10:41:58.521Z,8.77
2018-12-05T10:44:28.275Z,9.93
2018-12-05T10:46:57.656Z,7.77
2018-12-05T10:49:27.041Z,9.90
2018-12-05T10:51:56.555Z,11.27
2018-12-05T10:54:26.249Z,7.23
2018-12-05T10:56:56.041Z,7.10
2018-12-05T10:59:25.652Z,7.80
2018-12-05T11:03:01.800Z,9.97
2018-12-05T11:05:36.448Z,10.40
2018-12-05T11:08:11.116Z,7.40
2018-12-05T11:10:45.744Z,11.83
2018-12-05T11:13:20.398Z,9.40
2018-12-05T11:15:54.986Z,11.93
2018-12-05T11:18:29.689Z,10.07
2018-12-05T11:21:04.365Z,9.50
2018-12-05T11:23:38.913Z,11.97
2018-12-05T11:26:12.744Z,7.90
2018-12-05T11:28:42.328Z,12.27
2018-12-05T11:31:11.748Z,6.13
2018-12-05T11:33:41.394Z,5.07
2018-12-05T11:36:11.003Z,7.20
2018-12-05T11:38:40.780Z,7.77
2018-12-05T11:41:10.472Z,8.23
2018-12-05T11:43:40.113Z,6.57
2018-12-05T11:46:09.596Z,6.63
2018-12-05T11:48:39.189Z,12.17
2018-12-05T11:51:08.513Z,6.70
2018-12-05T11:53:38.232Z,8.20
2018-12-05T11:56:07.788Z,6.93
2018-12-05T11:58:37.525Z,7.50
2018-12-05T12:01:07.282Z,5.67
2018-12-05T12:03:36.824Z,7.27
2018-12-05T12:06:08.351Z,8.07
2018-12-05T12:08:37.936Z,11.90
2018-12-05T12:11:07.617Z,6.53
2018-12-05T12:13:37.282Z,5.57
2018-12-05T12:16:06.816Z,8.83
2018-12-05T12:18:36.608Z,7.77
2018-12-05T12:21:06.137Z,6.70
2018-12-05T12:23:35.757Z,7.73
2018-12-05T12:26:05.109Z,6.77
2018-12-05T12:28:34.845Z,7.27
2018-12-05T12:31:04.352Z,7.37
2018-12-05T12:33:33.959Z,5.10
2018-12-05T12:36:03.369Z,6.97
2018-12-05T12:38:32.984Z,5.97
2018-12-05T12:41:02.489Z,7.10
2018-12-05T12:43:32.009Z,6.50
2018-12-05T12:46:01.514Z,10.57
2018-12-05T12:48:31.162Z,8.47
2018-12-05T12:51:00.892Z,7.03
2018-12-05T12:53:30.312Z,5.40
2018-12-05T12:55:59.949Z,4.63
2018-12-05T12:58:29.356Z,8.83
2018-12-05T13:00:58.861Z,7.63
2018-12-05T13:03:28.207Z,10.13
2018-12-05T13:05:57.645Z,7.60
2018-12-05T13:08:27.045Z,6.47
2018-12-05T13:10:56.575Z,4.13
2018-12-05T13:13:26.270Z,8.97
2018-12-05T13:15:55.816Z,7.13
2018-12-05T13:18:25.431Z,5.20
2018-12-05T13:20:54.996Z,6.30
2018-12-05T13:23:24.582Z,7.73
2018-12-05T13:25:54.124Z,20.67
2018-12-05T13:28:23.829Z,8.50
2018-12-05T13:30:53.481Z,6.63
2018-12-05T13:33:22.766Z,9.60
2018-12-05T13:35:52.397Z,5.97
2018-12-05T13:38:21.982Z,8.77
2018-12-05T13:40:51.618Z,7.93
2018-12-05T13:43:21.217Z,7.43
2018-12-05T13:45:51.023Z,7.77
2018-12-05T13:48:20.516Z,11.00
2018-12-05T13:50:49.861Z,8.80
2018-12-05T13:53:19.650Z,10.70
2018-12-05T13:55:49.164Z,10.27
2018-12-05T13:58:18.828Z,11.93
2018-12-05T14:00:48.441Z,19.07
2018-12-05T14:03:18.044Z,13.63
2018-12-05T14:05:47.679Z,14.57
2018-12-05T14:08:17.213Z,11.60
2018-12-05T14:10:46.812Z,12.10
2018-12-05T14:13:16.452Z,14.90
2018-12-05T14:15:46.000Z,8.23
2018-12-05T14:18:15.324Z,13.23
2018-12-05T14:20:44.861Z,13.27
2018-12-05T14:23:14.383Z,13.87
2018-12-05T14:25:43.743Z,16.87
2018-12-05T14:28:13.142Z,19.13
2018-12-05T14:30:42.556Z,20.37
2018-12-05T14:33:11.945Z,7.63
2018-12-05T14:35:41.310Z,12.83
2018-12-05T14:38:10.716Z,14.43
2018-12-05T14:40:40.324Z,14.83
2018-12-05T14:43:10.086Z,13.10
2018-12-05T14:45:39.527Z,14.57
2018-12-05T14:48:09.020Z,11.67
2018-12-05T14:50:38.444Z,8.60
2018-12-05T14:53:08.257Z,13.60
2018-12-05T14:55:37.901Z,13.50
2018-12-05T14:58:07.597Z,12.20
2018-12-05T15:00:37.391Z,13.00
2018-12-05T15:03:06.943Z,10.47
2018-12-05T15:05:36.284Z,13.17
2018-12-05T15:08:05.780Z,11.33
2018-12-05T15:10:35.558Z,8.60
2018-12-05T15:13:05.226Z,10.67
2018-12-05T15:15:34.685Z,11.30
2018-12-05T15:18:04.146Z,13.03
2018-12-05T15:20:33.796Z,10.83
2018-12-05T15:23:03.197Z,17.17
2018-12-05T15:25:32.867Z,22.70
2018-12-05T15:28:02.427Z,15.73
2018-12-05T15:30:31.880Z,10.47
2018-12-05T15:33:01.460Z,11.77
2018-12-05T15:35:30.792Z,12.40
2018-12-05T15:38:00.648Z,17.17
2018-12-05T15:40:30.070Z,13.43
2018-12-05T15:42:59.613Z,29.87
2018-12-05T15:45:29.308Z,25.00
2018-12-05T15:47:58.888Z,21.23
2018-12-05T15:50:28.432Z,18.80
2018-12-05T15:52:58.056Z,13.67
2018-12-05T15:55:27.817Z,14.00
2018-12-05T15:57:57.448Z,12.63
2018-12-05T16:00:28.190Z,10.93
2018-12-05T16:02:57.891Z,14.73
2018-12-05T16:05:27.678Z,16.67
2018-12-05T16:07:57.154Z,12.70
2018-12-05T16:10:27.480Z,12.00
2018-12-05T16:12:56.777Z,8.07
2018-12-05T16:15:26.472Z,9.20
2018-12-05T16:17:56.155Z,14.57
2018-12-05T16:20:25.474Z,14.17
2018-12-05T16:22:55.131Z,14.13
2018-12-05T16:25:24.891Z,14.30
2018-12-05T16:27:54.345Z,8.17
2018-12-05T16:30:23.908Z,15.90
2018-12-05T16:32:53.212Z,12.63
2018-12-05T16:35:22.608Z,12.53
2018-12-05T16:37:52.255Z,20.67
2018-12-05T16:40:22.036Z,18.30
2018-12-05T16:42:51.638Z,12.80
2018-12-05T16:45:21.167Z,14.37
2018-12-05T16:47:50.957Z,11.90
2018-12-05T16:50:20.681Z,9.33
2018-12-05T16:52:50.282Z,10.67
2018-12-05T16:55:19.964Z,10.87
2018-12-05T16:57:49.575Z,13.53
2018-12-05T17:00:18.950Z,9.70
2018-12-05T17:02:48.490Z,26.63
2018-12-05T17:05:18.265Z,19.67
2018-12-05T17:07:47.738Z,18.93
2018-12-05T17:10:17.339Z,13.73
2018-12-05T17:12:46.801Z,17.57
2018-12-05T17:15:16.272Z,10.73
2018-12-05T17:17:45.664Z,13.23
2018-12-05T17:20:15.256Z,13.27
2018-12-05T17:22:44.662Z,12.17
2018-12-05T17:25:14.217Z,12.70
2018-12-05T17:27:43.769Z,12.73
2018-12-05T17:30:13.162Z,17.83
2018-12-05T17:32:42.780Z,19.30
2018-12-05T17:35:12.492Z,18.27
2018-12-05T17:37:41.943Z,16.80
2018-12-05T17:40:11.457Z,13.77
2018-12-05T17:42:41.054Z,15.23
2018-12-05T17:45:10.502Z,20.30
2018-12-05T17:47:40.135Z,16.53
2018-12-05T17:50:09.909Z,13.03
2018-12-05T17:52:39.481Z,15.77
2018-12-05T17:55:10.176Z,35.10
2018-12-05T17:57:39.487Z,20.03
2018-12-05T18:00:09.373Z,15.90
2018-12-05T18:02:38.773Z,13.50
2018-12-05T18:05:08.738Z,13.57
2018-12-05T18:07:38.405Z,13.10
2018-12-05T18:10:08.379Z,11.73
2018-12-05T18:12:37.969Z,28.40
2018-12-05T18:15:07.741Z,32.33
2018-12-05T18:17:37.275Z,16.07
2018-12-05T18:20:09.368Z,16.17
2018-12-05T18:22:39.120Z,16.40
2018-12-05T18:25:08.751Z,17.07
2018-12-05T18:27:38.087Z,18.03
2018-12-05T18:30:09.193Z,19.20
2018-12-05T18:32:38.560Z,22.27
2018-12-05T18:35:08.293Z,17.50
2018-12-05T18:37:37.677Z,17.07
2018-12-05T18:40:07.467Z,14.33
2018-12-05T18:42:36.928Z,12.40
2018-12-05T18:45:07.977Z,10.77
2018-12-05T18:47:37.516Z,20.33
2018-12-05T18:50:07.859Z,9.83
2018-12-05T18:52:37.473Z,14.17
2018-12-05T18:55:07.035Z,24.27
2018-12-05T18:57:36.436Z,20.17
2018-12-05T19:00:07.983Z,14.37
2018-12-05T19:02:37.516Z,12.50
2018-12-05T19:05:07.641Z,16.80
2018-12-05T19:07:36.969Z,15.77
2018-12-05T19:10:07.006Z,12.13
2018-12-05T19:12:36.585Z,14.83
2018-12-05T19:15:06.483Z,16.47
2018-12-05T19:17:36.081Z,12.43
2018-12-05T19:20:06.341Z,13.40
2018-12-05T19:22:35.793Z,15.67
2018-12-05T19:25:06.232Z,19.73
2018-12-05T19:27:35.779Z,19.17
2018-12-05T19:30:07.233Z,12.77
2018-12-05T19:32:36.735Z,11.50
2018-12-05T19:35:06.294Z,11.67
2018-12-05T19:37:36.121Z,12.57
2018-12-05T19:40:07.185Z,13.27
2018-12-05T19:42:36.897Z,12.00
2018-12-05T19:45:07.394Z,17.63
2018-12-05T19:47:37.468Z,17.13
2018-12-05T19:50:07.810Z,21.97
2018-12-05T19:52:37.567Z,11.77
2018-12-05T19:55:07.454Z,21.93
2018-12-05T19:57:37.133Z,24.57
2018-12-05T20:00:08.736Z,13.97
2018-12-05T20:02:38.696Z,16.63
2018-12-05T20:05:08.322Z,16.90
2018-12-05T20:07:37.820Z,17.03
2018-12-05T20:10:07.705Z,18.87
2018-12-05T20:12:37.640Z,12.97
2018-12-05T20:15:07.620Z,15.60
2018-12-05T20:17:37.191Z,11.10
2018-12-05T20:20:07.441Z,12.17
2018-12-05T20:22:37.300Z,14.57
2018-12-05T20:25:06.934Z,19.47
2018-12-05T20:27:36.469Z,15.53
2018-12-05T20:30:07.692Z,11.83
2018-12-05T20:32:37.222Z,11.73
2018-12-05T20:35:08.214Z,24.53
2018-12-05T20:37:37.770Z,17.33
2018-12-05T20:40:13.958Z,14.30
2018-12-05T20:42:43.446Z,16.00
2018-12-05T20:45:14.089Z,13.73
2018-12-05T20:47:43.826Z,16.77
2018-12-05T20:50:13.618Z,11.13
2018-12-05T20:52:43.391Z,13.03
2018-12-05T20:55:13.253Z,12.10
2018-12-05T20:57:42.951Z,11.83
2018-12-05T21:00:12.624Z,10.03
2018-12-05T21:02:42.472Z,9.50
2018-12-05T21:05:11.793Z,15.50
2018-12-05T21:07:41.345Z,12.73
2018-12-05T21:10:11.098Z,14.90
2018-12-05T21:12:40.688Z,13.37
2018-12-05T21:15:10.297Z,12.73
2018-12-05T21:17:40.045Z,10.60
2018-12-05T21:20:09.723Z,15.80
2018-12-05T21:22:39.227Z,14.03
2018-12-05T21:25:08.872Z,13.53
2018-12-05T21:27:38.647Z,19.20
2018-12-05T21:30:09.083Z,13.83
2018-12-05T21:32:38.900Z,15.87
2018-12-05T21:35:08.945Z,12.27
2018-12-05T21:37:38.592Z,18.53
2018-12-05T21:40:08.611Z,14.40
2018-12-05T21:42:38.166Z,12.13
2018-12-05T21:45:08.180Z,10.07
2018-12-05T21:47:38.134Z,16.13
2018-12-05T21:50:08.121Z,16.17
2018-12-05T21:52:38.027Z,13.90
2018-12-05T21:55:07.877Z,13.50
2018-12-05T21:57:37.165Z,21.67
2018-12-05T22:00:10.213Z,25.80
2018-12-05T22:02:39.691Z,17.43
2018-12-05T22:05:09.453Z,17.97
2018-12-05T22:07:38.837Z,11.83
2018-12-05T22:10:09.881Z,13.20
2018-12-05T22:12:39.692Z,15.33
2018-12-05T22:15:09.340Z,12.43
2018-12-05T22:17:40.183Z,13.50
2018-12-05T22:20:10.194Z,13.87
2018-12-05T22:22:39.797Z,13.27
2018-12-05T22:25:15.562Z,16.43
2018-12-05T22:27:45.156Z,12.83
2018-12-05T22:30:14.623Z,18.93
2018-12-05T22:32:44.130Z,13.60
2018-12-05T22:35:14.050Z,9.40
2018-12-05T22:37:43.660Z,11.63
2018-12-05T22:40:13.359Z,10.90
2018-12-05T22:42:43.126Z,8.97
2018-12-05T22:45:13.681Z,11.70
2018-12-05T22:47:43.193Z,15.67
2018-12-05T22:50:12.837Z,10.97
2018-12-05T22:52:43.449Z,12.63
2018-12-05T22:55:13.664Z,12.87
2018-12-05T22:57:42.972Z,15.77
2018-12-05T23:00:19.350Z,9.53
2018-12-05T23:02:50.842Z,9.97
2018-12-05T23:05:20.629Z,11.70
2018-12-05T23:07:50.104Z,14.23
2018-12-05T23:10:19.658Z,15.83
2018-12-05T23:12:49.182Z,10.43
2018-12-05T23:15:18.770Z,11.87
2018-12-05T23:17:48.364Z,15.23
2018-12-05T23:20:18.001Z,13.83
2018-12-05T23:22:47.598Z,15.13
2018-12-05T23:25:17.547Z,15.53
2018-12-05T23:27:47.078Z,13.50
2018-12-05T23:30:16.680Z,10.33
2018-12-05T23:32:46.412Z,12.30
2018-12-05T23:35:16.069Z,14.57
2018-12-05T23:37:45.528Z,16.90
2018-12-05T23:40:15.136Z,10.57
2018-12-05T23:42:45.268Z,13.37
2018-12-05T23:45:15.672Z,11.80
2018-12-05T23:47:45.375Z,15.60
2018-12-05T23:50:15.000Z,12.63
2018-12-05T23:52:44.601Z,13.83
2018-12-05T23:55:14.105Z,12.60
2018-12-05T23:57:44.036Z,20.50
